메인 페이지
METAR-TAF:

METAR-TAF

공항 :

앵귈라, 앵귈라

위도: 18-12-17N, 경도: 063-03-18W, 고도: 31m

현재 날씨관측

예보는 7 시간 36분 전, 03:00시(UTC)에 발표되었습니다.
북동4kt
온도 23°C
습도 78%
기압 1020 hPa
시정 10km 이상
고도 2000ft 상공 구름 조금

METAR: TQPF 180300Z 05004KT 9999 FEW020 23/19 Q1020

시각: 06:36 (10:36 UTC)

예보

예보는 11 시간 36분 전, 23:00시(UTC)에 발표되었습니다.
예보 대상 시간: 18일 00시부터 18일 24시까지 (UTC)
10kt
시정 10km 이상
고도 2000ft 상공 구름 보통
확률 30% :
일시적
18일 00시부터 18일 14시까지 (UTC)
소나기

TAF: TQPF 172300Z 1800/1824 09010KT 9999 SCT020 PROB30 TEMPO 1800/1814 SHRA

4,000개 이상의 공항 관측 자료 및 예보 (METAR 및 TAF 보고).

지도상에서 검색 가능한 기상관측소가 노란 점과 빨간 점으로 표시되어 있습니다.

기상관측소 명을 보려면 표시 위로 마우스를 이동하세요.

날씨 관측과 예보를 보려면 클릭하세요.

지도 변경 : 확대하려면 엑스 표시가 있는 녹색 버튼, 축소하려면 빼기 표시가 있는 녹색 버튼, 다음 페이지의 지도를 보려면 녹색 화살표를 클릭하세요.


METAR-TAF: